createdAt,value
2022-08-23T05:51:20.572Z,13.20
2022-08-23T05:53:48.874Z,13.40
2022-08-23T05:56:42.506Z,13.50
2022-08-23T05:59:14.139Z,13.80
2022-08-23T06:01:41.694Z,14.10
2022-08-23T06:04:10.438Z,14.30
2022-08-23T06:06:37.521Z,14.50
2022-08-23T06:09:07.284Z,14.60
2022-08-23T06:11:34.557Z,14.70
2022-08-23T06:14:03.395Z,14.90
2022-08-23T06:16:42.353Z,15.10
2022-08-23T06:19:10.169Z,15.20
2022-08-23T06:21:37.758Z,15.30
2022-08-23T06:24:04.909Z,15.40
2022-08-23T06:26:40.282Z,15.50
2022-08-23T06:29:13.453Z,15.60
2022-08-23T06:31:42.253Z,15.70
2022-08-23T06:34:11.274Z,15.90
2022-08-23T06:36:37.966Z,16.00
2022-08-23T06:39:07.409Z,16.30
2022-08-23T06:41:34.492Z,16.50
2022-08-23T06:44:01.413Z,16.70
2022-08-23T06:46:30.450Z,16.90
2022-08-23T06:48:57.689Z,17.10
2022-08-23T06:51:27.839Z,17.20
2022-08-23T06:53:56.171Z,17.20
2022-08-23T06:56:24.439Z,17.20
2022-08-23T06:58:52.246Z,17.40
2022-08-23T07:01:44.661Z,17.50
2022-08-23T07:04:13.582Z,17.50
2022-08-23T07:06:40.599Z,17.50
2022-08-23T07:09:07.915Z,17.50
2022-08-23T07:11:34.888Z,17.50
2022-08-23T07:14:04.039Z,17.70
2022-08-23T07:16:40.046Z,17.80
2022-08-23T07:19:07.483Z,17.90
2022-08-23T07:21:34.096Z,17.90
2022-08-23T07:24:00.728Z,18.00
2022-08-23T07:26:27.602Z,18.00
2022-08-23T07:28:56.075Z,18.10
2022-08-23T07:31:31.062Z,18.20
2022-08-23T07:33:59.659Z,18.20
2022-08-23T07:36:27.989Z,18.20
2022-08-23T07:38:56.671Z,18.50
2022-08-23T07:41:25.748Z,18.70
2022-08-23T07:43:52.346Z,18.80
2022-08-23T07:46:18.982Z,18.90
2022-08-23T07:48:54.943Z,19.10
2022-08-23T07:51:21.824Z,19.20
2022-08-23T07:53:48.448Z,19.30
2022-08-23T07:56:17.776Z,19.40
2022-08-23T07:58:44.718Z,19.60
2022-08-23T08:01:17.079Z,19.70
2022-08-23T08:03:45.765Z,19.90
2022-08-23T08:06:15.714Z,20.10
2022-08-23T08:08:43.199Z,20.20
2022-08-23T08:11:11.867Z,20.50
2022-08-23T08:13:40.095Z,20.50
2022-08-23T08:16:08.341Z,20.50
2022-08-23T08:18:38.174Z,20.50
2022-08-23T08:21:05.533Z,20.80
2022-08-23T08:23:32.119Z,20.90
2022-08-23T08:26:03.469Z,21.00
2022-08-23T08:28:30.205Z,21.20
2022-08-23T08:30:57.307Z,21.10
2022-08-23T08:33:24.543Z,21.20
2022-08-23T08:36:00.026Z,21.50
2022-08-23T08:38:32.320Z,21.50
2022-08-23T08:41:48.826Z,21.30
2022-08-23T08:44:36.102Z,21.60
2022-08-23T08:47:13.963Z,22.00
2022-08-23T08:49:51.657Z,22.00
2022-08-23T08:52:32.106Z,22.20
2022-08-23T08:55:17.538Z,22.20
2022-08-23T08:57:47.318Z,22.30
2022-08-23T09:00:19.933Z,22.40
2022-08-23T09:02:46.868Z,22.60
2022-08-23T09:05:26.283Z,22.90
2022-08-23T09:08:26.692Z,22.90
2022-08-23T09:11:12.047Z,22.90
2022-08-23T09:14:36.009Z,23.00
2022-08-23T09:17:09.777Z,23.10
2022-08-23T09:19:39.123Z,23.30
2022-08-23T09:22:11.892Z,23.30
2022-08-23T09:24:39.709Z,23.30
2022-08-23T09:27:08.296Z,23.50
2022-08-23T09:29:40.613Z,23.40
2022-08-23T09:32:30.412Z,23.30
2022-08-23T09:35:25.422Z,23.30
2022-08-23T09:37:59.911Z,23.50
2022-08-23T09:40:41.502Z,23.80
2022-08-23T09:43:12.018Z,23.70
2022-08-23T09:46:00.448Z,23.60
2022-08-23T09:48:35.413Z,23.50
2022-08-23T09:51:15.675Z,23.50
2022-08-23T09:53:48.739Z,23.60
2022-08-23T09:56:18.667Z,23.80
2022-08-23T09:58:47.241Z,23.90
2022-08-23T10:01:22.088Z,24.30
2022-08-23T10:04:17.109Z,24.40
2022-08-23T10:06:45.433Z,24.50
2022-08-23T10:09:28.189Z,24.80
2022-08-23T10:11:57.141Z,24.80
2022-08-23T10:14:28.806Z,24.60
2022-08-23T10:17:09.090Z,24.90
2022-08-23T10:19:49.355Z,25.20
2022-08-23T10:22:25.144Z,25.10
2022-08-23T10:25:05.965Z,25.20
2022-08-23T10:27:54.963Z,25.30
2022-08-23T10:30:28.623Z,25.40
2022-08-23T10:33:18.531Z,25.50
2022-08-23T10:35:57.418Z,25.60
2022-08-23T10:38:42.762Z,25.60
2022-08-23T10:41:15.110Z,25.60
2022-08-23T10:43:59.747Z,25.80
2022-08-23T10:46:28.027Z,25.80
2022-08-23T10:48:58.159Z,25.90
2022-08-23T10:51:32.801Z,26.10
2022-08-23T10:54:13.190Z,26.00
2022-08-23T10:56:44.425Z,25.90
2022-08-23T10:59:21.997Z,26.00
2022-08-23T11:02:06.492Z,26.00
2022-08-23T11:04:53.401Z,26.30
2022-08-23T11:07:29.171Z,26.30
2022-08-23T11:10:05.823Z,26.60
2022-08-23T11:12:56.355Z,26.60
2022-08-23T11:16:00.418Z,26.60
2022-08-23T11:18:39.082Z,26.60
2022-08-23T11:21:25.626Z,26.70
2022-08-23T11:24:15.187Z,26.80
2022-08-23T11:26:44.871Z,26.70
2022-08-23T11:29:29.084Z,26.80
2022-08-23T11:32:04.649Z,27.00
2022-08-23T11:34:48.092Z,27.10
2022-08-23T11:37:20.301Z,27.00
2022-08-23T11:39:59.138Z,27.40
2022-08-23T11:42:34.218Z,27.40
2022-08-23T11:45:01.085Z,27.60
2022-08-23T11:47:49.271Z,27.40
2022-08-23T11:50:41.524Z,27.30
2022-08-23T11:53:23.613Z,27.30
2022-08-23T11:56:11.491Z,27.60
2022-08-23T11:59:12.109Z,27.60
2022-08-23T12:01:40.571Z,27.50
2022-08-23T12:04:11.116Z,27.70
2022-08-23T12:07:00.866Z,27.70
2022-08-23T12:09:27.411Z,27.70
2022-08-23T12:12:32.450Z,27.80
2022-08-23T12:15:05.706Z,27.80
2022-08-23T12:17:35.019Z,28.10
2022-08-23T12:20:06.866Z,28.20
2022-08-23T12:23:04.686Z,28.10
2022-08-23T12:25:31.643Z,28.10
2022-08-23T12:28:16.313Z,28.10
2022-08-23T12:31:15.700Z,28.00
2022-08-23T12:34:01.126Z,28.20
2022-08-23T12:36:45.494Z,28.30
2022-08-23T12:39:37.152Z,28.30
2022-08-23T12:42:11.321Z,28.40
2022-08-23T12:44:37.973Z,28.30
2022-08-23T12:47:18.304Z,28.60
2022-08-23T12:49:58.799Z,28.10
2022-08-23T12:52:28.629Z,28.20
2022-08-23T12:54:55.290Z,28.30
2022-08-23T12:57:35.899Z,28.40
2022-08-23T13:00:17.063Z,28.50
2022-08-23T13:02:56.886Z,28.90
2022-08-23T13:05:43.266Z,28.70
2022-08-23T13:08:15.177Z,28.90
2022-08-23T13:10:43.657Z,28.80
2022-08-23T13:13:18.726Z,28.40
2022-08-23T13:15:48.001Z,28.40
2022-08-23T13:18:33.547Z,28.40
2022-08-23T13:21:38.235Z,28.10
2022-08-23T13:24:38.348Z,28.40
2022-08-23T13:27:21.361Z,28.50
2022-08-23T13:29:53.848Z,28.80
2022-08-23T13:32:45.095Z,28.80
2022-08-23T13:35:38.876Z,28.40
2022-08-23T13:38:08.495Z,28.50
2022-08-23T13:40:55.247Z,28.40
2022-08-23T13:43:45.093Z,28.50
2022-08-23T13:46:27.248Z,28.60
2022-08-23T13:49:04.831Z,28.70
2022-08-23T13:51:38.846Z,28.70
2022-08-23T13:54:12.996Z,28.60
2022-08-23T13:56:55.999Z,28.70
2022-08-23T13:59:31.222Z,28.50
2022-08-23T14:02:01.632Z,28.40
2022-08-23T14:04:28.587Z,28.20
2022-08-23T14:06:55.186Z,28.20
2022-08-23T14:09:21.788Z,28.40
2022-08-23T14:11:53.655Z,28.40
2022-08-23T14:14:20.730Z,28.30
2022-08-23T14:16:47.363Z,28.30
2022-08-23T14:19:16.410Z,28.10
2022-08-23T14:21:44.860Z,28.00
2022-08-23T14:24:11.463Z,28.00
2022-08-23T14:26:38.285Z,27.90
2022-08-23T14:29:18.310Z,27.80
2022-08-23T14:31:48.166Z,27.50
2022-08-23T14:34:14.815Z,27.50
2022-08-23T14:36:41.994Z,27.50
2022-08-23T14:39:27.998Z,27.40
2022-08-23T14:41:54.702Z,27.40
2022-08-23T14:44:21.331Z,27.20
2022-08-23T14:46:47.995Z,27.30
2022-08-23T14:49:14.725Z,27.40
2022-08-23T14:51:46.546Z,27.20
2022-08-23T14:54:22.505Z,27.00
2022-08-23T14:56:49.395Z,26.90
2022-08-23T14:59:16.127Z,27.00
2022-08-23T15:01:43.233Z,26.70
2022-08-23T15:04:10.015Z,26.80
2022-08-23T15:06:36.699Z,27.00
2022-08-23T15:09:03.582Z,27.00
2022-08-23T15:14:16.814Z,26.90
2022-08-23T15:16:43.550Z,26.80
2022-08-23T15:19:10.187Z,26.80
2022-08-23T15:21:36.778Z,26.80
2022-08-23T15:24:03.761Z,26.70
2022-08-23T15:26:31.410Z,26.60
2022-08-23T15:28:59.237Z,26.60
2022-08-23T15:31:26.213Z,26.50
2022-08-23T15:33:52.855Z,26.60
2022-08-23T15:36:19.906Z,26.60
2022-08-23T15:38:47.635Z,26.70
2022-08-23T15:41:16.390Z,26.60
2022-08-23T15:43:44.462Z,26.70
2022-08-23T15:46:17.135Z,26.60
2022-08-23T15:48:49.219Z,26.60
2022-08-23T15:51:18.116Z,26.70
2022-08-23T15:53:45.131Z,26.70
2022-08-23T15:56:27.699Z,26.70
2022-08-23T15:58:54.566Z,26.90
2022-08-23T16:01:24.426Z,26.80
2022-08-23T16:03:51.804Z,26.90
2022-08-23T16:06:18.534Z,27.00
2022-08-23T16:08:49.515Z,27.00
2022-08-23T16:11:16.118Z,27.30
2022-08-23T16:13:45.324Z,27.40
2022-08-23T16:16:15.693Z,27.50
2022-08-23T16:18:42.372Z,27.50
2022-08-23T16:21:09.083Z,27.50
2022-08-23T16:23:35.712Z,27.60
2022-08-23T16:26:02.307Z,27.30
2022-08-23T16:28:28.918Z,27.20
2022-08-23T16:30:55.608Z,27.10
2022-08-23T16:33:22.266Z,26.80
2022-08-23T16:35:48.877Z,26.70
2022-08-23T16:38:15.465Z,26.70
2022-08-23T16:40:42.111Z,26.50
2022-08-23T16:43:08.685Z,26.50
2022-08-23T16:45:35.361Z,26.30
2022-08-23T16:48:02.005Z,26.20
2022-08-23T16:50:29.241Z,26.20
2022-08-23T16:52:55.875Z,26.10
2022-08-23T16:55:22.502Z,26.00
2022-08-23T16:57:49.080Z,26.00
2022-08-23T17:00:16.434Z,26.10
2022-08-23T17:02:43.293Z,25.80
2022-08-23T17:05:14.438Z,25.80
2022-08-23T17:07:41.452Z,25.70
2022-08-23T17:10:10.334Z,25.60
2022-08-23T17:12:40.427Z,25.50
2022-08-23T17:15:11.601Z,25.40
2022-08-23T17:17:38.211Z,25.40
2022-08-23T17:20:06.986Z,25.20
2022-08-23T17:22:33.821Z,25.10
2022-08-23T17:25:00.424Z,25.00
2022-08-23T17:27:27.109Z,24.90
2022-08-23T17:29:54.751Z,24.80
2022-08-23T17:32:21.805Z,24.60
2022-08-23T17:34:48.476Z,24.60
2022-08-23T17:37:17.707Z,24.50
2022-08-23T17:39:44.849Z,24.40
2022-08-23T17:42:11.468Z,24.30
2022-08-23T17:44:38.106Z,24.20
2022-08-23T17:47:09.099Z,24.10
2022-08-23T17:49:35.766Z,24.00
2022-08-23T17:52:03.473Z,23.80
2022-08-23T17:54:30.083Z,23.60
2022-08-23T17:56:57.131Z,23.60
2022-08-23T17:59:23.782Z,23.40
2022-08-23T18:01:50.377Z,23.40
2022-08-23T18:04:17.040Z,23.30
2022-08-23T18:06:44.124Z,23.20
2022-08-23T18:09:11.338Z,23.10
2022-08-23T18:11:38.032Z,22.90
2022-08-23T18:14:05.746Z,22.70
2022-08-23T18:16:35.505Z,22.70
2022-08-23T18:19:04.239Z,22.60
2022-08-23T18:21:31.154Z,22.50
2022-08-23T18:23:58.566Z,22.30
2022-08-23T18:26:25.443Z,22.40
2022-08-23T18:28:52.026Z,22.20
2022-08-23T18:31:18.631Z,22.10
2022-08-23T18:33:46.946Z,22.00
2022-08-23T18:36:14.677Z,21.80
2022-08-23T18:38:41.283Z,21.80
2022-08-23T18:41:07.907Z,21.90
2022-08-23T18:43:37.094Z,21.70
2022-08-23T18:46:05.158Z,21.60
2022-08-23T18:48:32.578Z,21.50
2022-08-23T18:50:59.449Z,21.40
2022-08-23T18:53:26.134Z,21.30
2022-08-23T18:55:53.020Z,21.10
2022-08-23T18:58:21.103Z,21.10
2022-08-23T19:00:50.659Z,21.00
2022-08-23T19:03:17.631Z,20.90
2022-08-23T19:05:44.817Z,20.70
2022-08-23T19:08:12.684Z,20.50
2022-08-23T19:10:40.391Z,20.40
2022-08-23T19:13:07.280Z,20.30
2022-08-23T19:15:35.185Z,20.30
2022-08-23T19:18:03.216Z,20.20
2022-08-23T19:20:30.240Z,20.10
2022-08-23T19:22:57.500Z,19.90
2022-08-23T19:25:24.339Z,19.90
2022-08-23T19:27:51.584Z,19.90
2022-08-23T19:30:18.383Z,19.80
2022-08-23T19:32:45.078Z,19.70
2022-08-23T19:35:12.319Z,19.70
2022-08-23T19:37:39.276Z,19.60
2022-08-23T19:40:07.790Z,19.50
2022-08-23T19:42:34.747Z,19.40
2022-08-23T19:45:01.352Z,19.40
2022-08-23T19:47:28.862Z,19.40
2022-08-23T19:49:55.548Z,19.40
2022-08-23T19:52:22.378Z,19.30
2022-08-23T19:54:48.984Z,19.30
2022-08-23T19:57:15.910Z,19.10
2022-08-23T19:59:42.619Z,19.00
2022-08-23T20:02:10.565Z,18.90
2022-08-23T20:04:37.327Z,18.90
2022-08-23T20:07:04.734Z,18.90
2022-08-23T20:09:32.501Z,18.90
2022-08-23T20:11:59.353Z,18.80
2022-08-23T20:14:27.240Z,18.70
2022-08-23T20:16:55.103Z,18.50
2022-08-23T20:19:21.886Z,18.40
2022-08-23T20:21:48.653Z,18.40
2022-08-23T20:24:16.389Z,18.30
2022-08-23T20:26:48.394Z,18.30
2022-08-23T20:29:21.480Z,18.30
2022-08-23T20:31:56.567Z,18.30
2022-08-23T20:34:26.614Z,18.30
2022-08-23T20:36:54.298Z,18.30
2022-08-23T20:39:23.942Z,18.10
2022-08-23T20:41:52.070Z,18.20
2022-08-23T20:44:20.657Z,18.10
2022-08-23T20:46:49.756Z,18.10
2022-08-23T20:49:20.430Z,18.00
2022-08-23T20:51:47.031Z,17.80
2022-08-23T20:54:14.714Z,17.80
2022-08-23T20:56:41.514Z,17.80
2022-08-23T20:59:08.911Z,17.80
2022-08-23T21:01:35.909Z,17.80
2022-08-23T21:04:02.809Z,17.80
2022-08-23T21:06:37.082Z,17.70
2022-08-23T21:09:04.774Z,17.70
2022-08-23T21:11:31.383Z,17.70
2022-08-23T21:13:58.023Z,17.70
2022-08-23T21:16:25.902Z,17.60
2022-08-23T21:18:53.847Z,17.60
2022-08-23T21:21:25.829Z,17.30
2022-08-23T21:23:52.743Z,17.10
2022-08-23T21:26:19.712Z,17.00
2022-08-23T21:28:46.429Z,17.00
2022-08-23T21:31:17.248Z,17.10
2022-08-23T21:33:44.615Z,17.10
2022-08-23T21:36:13.462Z,17.10
2022-08-23T21:38:40.272Z,17.00
2022-08-23T21:41:09.968Z,17.00
2022-08-23T21:43:38.025Z,17.00
2022-08-23T21:46:05.775Z,16.90
2022-08-23T21:48:32.505Z,16.90
2022-08-23T21:51:00.083Z,16.80
2022-08-23T21:53:26.933Z,16.90
2022-08-23T21:55:53.552Z,16.80
2022-08-23T21:58:20.658Z,16.60
2022-08-23T22:00:47.481Z,16.50
2022-08-23T22:03:14.170Z,16.40
2022-08-23T22:05:42.855Z,16.30
2022-08-23T22:08:10.571Z,16.30
2022-08-23T22:10:44.934Z,16.20
2022-08-23T22:13:26.701Z,16.10
2022-08-23T22:15:53.363Z,16.30
2022-08-23T22:18:20.035Z,16.30
2022-08-23T22:20:46.659Z,16.20
2022-08-23T22:23:13.345Z,16.30
2022-08-23T22:25:39.948Z,16.30
2022-08-23T22:28:06.555Z,16.20
2022-08-23T22:30:33.206Z,15.90
2022-08-23T22:32:59.835Z,15.80
2022-08-23T22:35:26.455Z,15.90
2022-08-23T22:38:12.747Z,16.00
2022-08-23T22:40:39.658Z,15.90
2022-08-23T22:43:07.222Z,16.00
2022-08-23T22:45:33.910Z,16.10
2022-08-23T22:48:00.781Z,16.10
2022-08-23T22:50:27.461Z,16.10
2022-08-23T22:52:54.075Z,16.20
2022-08-23T22:55:20.679Z,16.10
2022-08-23T22:57:47.284Z,16.00
2022-08-23T23:00:14.171Z,15.80
2022-08-23T23:02:40.816Z,15.60
2022-08-23T23:05:07.809Z,15.70
2022-08-23T23:07:34.459Z,15.60
2022-08-23T23:10:01.147Z,15.60
2022-08-23T23:12:27.740Z,15.60
2022-08-23T23:14:54.346Z,15.50
2022-08-23T23:17:20.943Z,15.60
2022-08-23T23:19:47.539Z,15.60
2022-08-23T23:22:14.172Z,15.50
2022-08-23T23:24:40.810Z,15.40
2022-08-23T23:27:08.117Z,15.30
2022-08-23T23:29:34.883Z,15.20
2022-08-23T23:32:01.610Z,15.20
2022-08-23T23:34:28.689Z,15.30
2022-08-23T23:36:56.429Z,15.40
2022-08-23T23:39:24.115Z,15.30
2022-08-23T23:41:51.124Z,15.30
2022-08-23T23:44:24.406Z,15.30
2022-08-23T23:46:57.943Z,15.30
2022-08-23T23:49:32.375Z,15.30
2022-08-23T23:52:00.640Z,15.30
2022-08-23T23:54:27.273Z,15.20
2022-08-23T23:56:53.908Z,15.10
2022-08-23T23:59:20.515Z,15.10
